sensor_id;sensor_type;location;lat;lon;timestamp;P1;durP1;ratioP1;P2;durP2;ratioP2
17564;SDS011;62994;52.126;5.596;2023-07-13T00:03:43;7.18;;;1.67;;
17564;SDS011;62994;52.126;5.596;2023-07-13T00:06:15;6.10;;;2.50;;
17564;SDS011;62994;52.126;5.596;2023-07-13T00:08:42;4.25;;;2.10;;
17564;SDS011;62994;52.126;5.596;2023-07-13T00:11:23;4.20;;;1.98;;
17564;SDS011;62994;52.126;5.596;2023-07-13T00:13:51;4.32;;;1.98;;
17564;SDS011;62994;52.126;5.596;2023-07-13T00:16:20;8.35;;;2.08;;
17564;SDS011;62994;52.126;5.596;2023-07-13T00:18:47;4.70;;;2.25;;
17564;SDS011;62994;52.126;5.596;2023-07-13T00:21:21;3.20;;;1.77;;
17564;SDS011;62994;52.126;5.596;2023-07-13T00:23:57;3.65;;;2.00;;
17564;SDS011;62994;52.126;5.596;2023-07-13T00:26:26;2.50;;;1.67;;
17564;SDS011;62994;52.126;5.596;2023-07-13T00:29:01;3.55;;;1.92;;
17564;SDS011;62994;52.126;5.596;2023-07-13T00:31:30;4.18;;;2.50;;
17564;SDS011;62994;52.126;5.596;2023-07-13T00:34:06;4.93;;;1.85;;
17564;SDS011;62994;52.126;5.596;2023-07-13T00:36:36;3.92;;;1.75;;
17564;SDS011;62994;52.126;5.596;2023-07-13T00:39:10;5.32;;;2.10;;
17564;SDS011;62994;52.126;5.596;2023-07-13T00:41:38;6.15;;;1.77;;
17564;SDS011;62994;52.126;5.596;2023-07-13T00:44:11;4.30;;;1.83;;
17564;SDS011;62994;52.126;5.596;2023-07-13T00:46:42;4.80;;;1.73;;
17564;SDS011;62994;52.126;5.596;2023-07-13T00:49:16;3.28;;;1.85;;
17564;SDS011;62994;52.126;5.596;2023-07-13T00:51:51;3.38;;;1.77;;
17564;SDS011;62994;52.126;5.596;2023-07-13T00:54:24;3.95;;;1.92;;
17564;SDS011;62994;52.126;5.596;2023-07-13T00:57:00;5.45;;;2.30;;
17564;SDS011;62994;52.126;5.596;2023-07-13T00:59:32;3.88;;;2.03;;
17564;SDS011;62994;52.126;5.596;2023-07-13T01:02:04;2.88;;;1.75;;
17564;SDS011;62994;52.126;5.596;2023-07-13T01:04:40;4.72;;;2.28;;
17564;SDS011;62994;52.126;5.596;2023-07-13T01:07:31;5.28;;;1.80;;
17564;SDS011;62994;52.126;5.596;2023-07-13T01:10:02;4.18;;;1.92;;
17564;SDS011;62994;52.126;5.596;2023-07-13T01:12:53;6.18;;;2.17;;
17564;SDS011;62994;52.126;5.596;2023-07-13T01:15:34;5.53;;;1.92;;
17564;SDS011;62994;52.126;5.596;2023-07-13T01:18:04;1.92;;;1.75;;
17564;SDS011;62994;52.126;5.596;2023-07-13T01:20:32;4.78;;;1.77;;
17564;SDS011;62994;52.126;5.596;2023-07-13T01:23:07;5.35;;;1.65;;
17564;SDS011;62994;52.126;5.596;2023-07-13T01:25:39;1.98;;;1.80;;
17564;SDS011;62994;52.126;5.596;2023-07-13T01:28:13;3.88;;;1.75;;
17564;SDS011;62994;52.126;5.596;2023-07-13T01:30:43;2.35;;;1.70;;
17564;SDS011;62994;52.126;5.596;2023-07-13T01:33:13;3.88;;;1.52;;
17564;SDS011;62994;52.126;5.596;2023-07-13T01:35:46;6.25;;;2.10;;
17564;SDS011;62994;52.126;5.596;2023-07-13T01:38:15;3.15;;;1.80;;
17564;SDS011;62994;52.126;5.596;2023-07-13T01:40:46;6.07;;;2.15;;
17564;SDS011;62994;52.126;5.596;2023-07-13T01:43:13;4.00;;;2.10;;
17564;SDS011;62994;52.126;5.596;2023-07-13T01:45:42;6.38;;;2.00;;
17564;SDS011;62994;52.126;5.596;2023-07-13T01:48:11;2.45;;;1.77;;
17564;SDS011;62994;52.126;5.596;2023-07-13T01:50:42;2.92;;;1.80;;
17564;SDS011;62994;52.126;5.596;2023-07-13T01:53:10;3.10;;;2.05;;
17564;SDS011;62994;52.126;5.596;2023-07-13T01:55:39;2.92;;;2.05;;
17564;SDS011;62994;52.126;5.596;2023-07-13T01:58:08;4.10;;;1.83;;
17564;SDS011;62994;52.126;5.596;2023-07-13T02:00:41;2.00;;;1.60;;
17564;SDS011;62994;52.126;5.596;2023-07-13T02:03:17;8.98;;;2.15;;
17564;SDS011;62994;52.126;5.596;2023-07-13T02:05:49;5.30;;;2.00;;
17564;SDS011;62994;52.126;5.596;2023-07-13T02:08:18;5.93;;;1.70;;
17564;SDS011;62994;52.126;5.596;2023-07-13T02:10:49;2.72;;;1.65;;
17564;SDS011;62994;52.126;5.596;2023-07-13T02:13:16;4.47;;;2.08;;
17564;SDS011;62994;52.126;5.596;2023-07-13T02:15:51;5.55;;;1.75;;
17564;SDS011;62994;52.126;5.596;2023-07-13T02:18:26;3.08;;;2.00;;
17564;SDS011;62994;52.126;5.596;2023-07-13T02:21:03;1.83;;;1.40;;
17564;SDS011;62994;52.126;5.596;2023-07-13T02:23:42;3.28;;;1.90;;
17564;SDS011;62994;52.126;5.596;2023-07-13T02:26:16;4.38;;;1.70;;
17564;SDS011;62994;52.126;5.596;2023-07-13T02:28:47;5.93;;;2.38;;
17564;SDS011;62994;52.126;5.596;2023-07-13T02:31:17;2.90;;;2.10;;
17564;SDS011;62994;52.126;5.596;2023-07-13T02:33:55;3.47;;;1.63;;
17564;SDS011;62994;52.126;5.596;2023-07-13T02:36:46;3.17;;;2.00;;
17564;SDS011;62994;52.126;5.596;2023-07-13T02:39:25;4.75;;;2.03;;
17564;SDS011;62994;52.126;5.596;2023-07-13T02:42:11;3.75;;;1.67;;
17564;SDS011;62994;52.126;5.596;2023-07-13T02:44:43;4.00;;;2.00;;
17564;SDS011;62994;52.126;5.596;2023-07-13T02:47:13;5.93;;;2.13;;
17564;SDS011;62994;52.126;5.596;2023-07-13T02:49:40;3.42;;;2.08;;
17564;SDS011;62994;52.126;5.596;2023-07-13T02:52:13;4.45;;;1.85;;
17564;SDS011;62994;52.126;5.596;2023-07-13T02:54:44;3.50;;;2.15;;
17564;SDS011;62994;52.126;5.596;2023-07-13T02:57:14;2.17;;;1.83;;
17564;SDS011;62994;52.126;5.596;2023-07-13T02:59:43;4.65;;;2.40;;
17564;SDS011;62994;52.126;5.596;2023-07-13T03:02:13;7.22;;;2.42;;
17564;SDS011;62994;52.126;5.596;2023-07-13T03:04:41;5.05;;;2.15;;
17564;SDS011;62994;52.126;5.596;2023-07-13T03:07:10;6.57;;;2.22;;
17564;SDS011;62994;52.126;5.596;2023-07-13T03:09:40;7.85;;;2.65;;
17564;SDS011;62994;52.126;5.596;2023-07-13T03:12:08;4.60;;;1.95;;
17564;SDS011;62994;52.126;5.596;2023-07-13T03:14:36;6.80;;;2.55;;
17564;SDS011;62994;52.126;5.596;2023-07-13T03:17:09;10.45;;;3.13;;
17564;SDS011;62994;52.126;5.596;2023-07-13T03:19:39;8.85;;;3.15;;
17564;SDS011;62994;52.126;5.596;2023-07-13T03:22:23;5.18;;;2.33;;
17564;SDS011;62994;52.126;5.596;2023-07-13T03:24:52;6.40;;;2.83;;
17564;SDS011;62994;52.126;5.596;2023-07-13T03:27:26;7.70;;;2.63;;
17564;SDS011;62994;52.126;5.596;2023-07-13T03:29:59;4.18;;;2.60;;
17564;SDS011;62994;52.126;5.596;2023-07-13T03:32:29;4.47;;;2.47;;
17564;SDS011;62994;52.126;5.596;2023-07-13T03:34:56;6.28;;;2.40;;
17564;SDS011;62994;52.126;5.596;2023-07-13T03:37:24;2.42;;;2.10;;
17564;SDS011;62994;52.126;5.596;2023-07-13T03:39:58;5.53;;;2.25;;
17564;SDS011;62994;52.126;5.596;2023-07-13T03:42:25;4.82;;;2.22;;
17564;SDS011;62994;52.126;5.596;2023-07-13T03:44:54;7.10;;;2.60;;
17564;SDS011;62994;52.126;5.596;2023-07-13T03:47:26;4.45;;;2.55;;
17564;SDS011;62994;52.126;5.596;2023-07-13T03:49:55;5.20;;;2.35;;
17564;SDS011;62994;52.126;5.596;2023-07-13T03:52:22;5.72;;;2.58;;
17564;SDS011;62994;52.126;5.596;2023-07-13T03:54:54;3.05;;;2.30;;
17564;SDS011;62994;52.126;5.596;2023-07-13T03:57:24;5.78;;;2.35;;
17564;SDS011;62994;52.126;5.596;2023-07-13T03:59:54;8.60;;;3.15;;
17564;SDS011;62994;52.126;5.596;2023-07-13T04:02:23;3.08;;;2.80;;
17564;SDS011;62994;52.126;5.596;2023-07-13T04:04:56;8.88;;;3.03;;
17564;SDS011;62994;52.126;5.596;2023-07-13T04:07:25;4.88;;;2.45;;
17564;SDS011;62994;52.126;5.596;2023-07-13T04:09:52;11.20;;;2.97;;
17564;SDS011;62994;52.126;5.596;2023-07-13T04:12:21;4.82;;;2.63;;
17564;SDS011;62994;52.126;5.596;2023-07-13T04:14:49;8.45;;;3.10;;
17564;SDS011;62994;52.126;5.596;2023-07-13T04:17:18;10.40;;;2.53;;
17564;SDS011;62994;52.126;5.596;2023-07-13T04:20:00;12.18;;;3.33;;
17564;SDS011;62994;52.126;5.596;2023-07-13T04:22:46;4.33;;;2.80;;
17564;SDS011;62994;52.126;5.596;2023-07-13T04:25:36;8.55;;;2.60;;
17564;SDS011;62994;52.126;5.596;2023-07-13T04:28:05;15.38;;;3.58;;
17564;SDS011;62994;52.126;5.596;2023-07-13T04:30:32;5.03;;;2.30;;
17564;SDS011;62994;52.126;5.596;2023-07-13T04:33:02;4.75;;;2.20;;
17564;SDS011;62994;52.126;5.596;2023-07-13T04:35:44;8.32;;;3.60;;
17564;SDS011;62994;52.126;5.596;2023-07-13T04:38:16;3.70;;;2.40;;
17564;SDS011;62994;52.126;5.596;2023-07-13T04:40:46;6.30;;;2.80;;
17564;SDS011;62994;52.126;5.596;2023-07-13T04:43:16;6.20;;;2.70;;
17564;SDS011;62994;52.126;5.596;2023-07-13T04:45:45;10.80;;;3.25;;
17564;SDS011;62994;52.126;5.596;2023-07-13T04:48:13;7.10;;;3.00;;
17564;SDS011;62994;52.126;5.596;2023-07-13T04:50:46;8.15;;;2.53;;
17564;SDS011;62994;52.126;5.596;2023-07-13T04:53:15;6.25;;;2.60;;
17564;SDS011;62994;52.126;5.596;2023-07-13T04:55:42;4.57;;;2.70;;
17564;SDS011;62994;52.126;5.596;2023-07-13T04:58:13;9.20;;;3.28;;
17564;SDS011;62994;52.126;5.596;2023-07-13T05:00:41;7.35;;;3.60;;
17564;SDS011;62994;52.126;5.596;2023-07-13T05:03:11;8.20;;;3.60;;
17564;SDS011;62994;52.126;5.596;2023-07-13T05:05:40;8.13;;;3.78;;
17564;SDS011;62994;52.126;5.596;2023-07-13T05:10:54;3.92;;;3.47;;
17564;SDS011;62994;52.126;5.596;2023-07-13T05:13:24;8.38;;;3.50;;
17564;SDS011;62994;52.126;5.596;2023-07-13T05:15:55;10.18;;;3.67;;
17564;SDS011;62994;52.126;5.596;2023-07-13T05:18:26;10.07;;;3.58;;
17564;SDS011;62994;52.126;5.596;2023-07-13T05:21:14;9.52;;;4.28;;
17564;SDS011;62994;52.126;5.596;2023-07-13T05:23:42;8.88;;;3.80;;
17564;SDS011;62994;52.126;5.596;2023-07-13T05:26:12;13.18;;;4.13;;
17564;SDS011;62994;52.126;5.596;2023-07-13T05:28:47;10.00;;;3.40;;
17564;SDS011;62994;52.126;5.596;2023-07-13T05:31:18;13.23;;;4.45;;
17564;SDS011;62994;52.126;5.596;2023-07-13T05:33:47;10.77;;;4.38;;
17564;SDS011;62994;52.126;5.596;2023-07-13T05:36:16;11.52;;;4.07;;
17564;SDS011;62994;52.126;5.596;2023-07-13T05:38:55;8.82;;;4.30;;
17564;SDS011;62994;52.126;5.596;2023-07-13T05:41:24;7.85;;;4.53;;
17564;SDS011;62994;52.126;5.596;2023-07-13T05:43:53;13.18;;;4.90;;
17564;SDS011;62994;52.126;5.596;2023-07-13T05:46:22;11.23;;;3.90;;
17564;SDS011;62994;52.126;5.596;2023-07-13T05:48:55;5.50;;;3.85;;
17564;SDS011;62994;52.126;5.596;2023-07-13T05:51:27;14.07;;;5.07;;
17564;SDS011;62994;52.126;5.596;2023-07-13T05:54:00;6.72;;;3.92;;
17564;SDS011;62994;52.126;5.596;2023-07-13T05:56:27;13.57;;;4.72;;
17564;SDS011;62994;52.126;5.596;2023-07-13T05:59:12;13.68;;;5.00;;
17564;SDS011;62994;52.126;5.596;2023-07-13T06:01:45;8.55;;;4.57;;
17564;SDS011;62994;52.126;5.596;2023-07-13T06:04:28;12.20;;;6.53;;
17564;SDS011;62994;52.126;5.596;2023-07-13T06:06:57;14.38;;;5.80;;
17564;SDS011;62994;52.126;5.596;2023-07-13T06:09:30;7.90;;;5.40;;
17564;SDS011;62994;52.126;5.596;2023-07-13T06:12:00;14.50;;;6.20;;
17564;SDS011;62994;52.126;5.596;2023-07-13T06:14:31;14.20;;;7.40;;
17564;SDS011;62994;52.126;5.596;2023-07-13T06:16:59;12.93;;;5.85;;
17564;SDS011;62994;52.126;5.596;2023-07-13T06:19:30;15.95;;;6.47;;
17564;SDS011;62994;52.126;5.596;2023-07-13T06:22:05;11.05;;;6.63;;
17564;SDS011;62994;52.126;5.596;2023-07-13T06:24:48;8.30;;;6.65;;
17564;SDS011;62994;52.126;5.596;2023-07-13T06:27:16;8.52;;;6.25;;
17564;SDS011;62994;52.126;5.596;2023-07-13T06:29:57;15.27;;;6.50;;
17564;SDS011;62994;52.126;5.596;2023-07-13T06:32:26;14.55;;;6.45;;
17564;SDS011;62994;52.126;5.596;2023-07-13T06:34:53;16.65;;;7.25;;
17564;SDS011;62994;52.126;5.596;2023-07-13T06:37:22;9.13;;;7.13;;
17564;SDS011;62994;52.126;5.596;2023-07-13T06:39:52;10.18;;;6.75;;
17564;SDS011;62994;52.126;5.596;2023-07-13T06:42:25;12.60;;;7.57;;
17564;SDS011;62994;52.126;5.596;2023-07-13T06:44:55;8.95;;;6.97;;
17564;SDS011;62994;52.126;5.596;2023-07-13T06:47:22;14.02;;;7.88;;
17564;SDS011;62994;52.126;5.596;2023-07-13T06:49:49;13.40;;;7.55;;
17564;SDS011;62994;52.126;5.596;2023-07-13T06:52:18;16.75;;;7.90;;
17564;SDS011;62994;52.126;5.596;2023-07-13T06:54:46;12.27;;;8.05;;
17564;SDS011;62994;52.126;5.596;2023-07-13T06:57:16;15.88;;;7.78;;
17564;SDS011;62994;52.126;5.596;2023-07-13T06:59:43;20.17;;;9.23;;
17564;SDS011;62994;52.126;5.596;2023-07-13T07:02:22;17.52;;;8.48;;
17564;SDS011;62994;52.126;5.596;2023-07-13T07:04:57;13.10;;;8.02;;
17564;SDS011;62994;52.126;5.596;2023-07-13T07:07:35;9.32;;;7.82;;
17564;SDS011;62994;52.126;5.596;2023-07-13T07:10:16;15.50;;;8.82;;
17564;SDS011;62994;52.126;5.596;2023-07-13T07:12:50;18.50;;;8.98;;
17564;SDS011;62994;52.126;5.596;2023-07-13T07:15:45;16.65;;;8.88;;
17564;SDS011;62994;52.126;5.596;2023-07-13T07:18:35;24.13;;;9.88;;
17564;SDS011;62994;52.126;5.596;2023-07-13T07:21:18;16.63;;;8.68;;
17564;SDS011;62994;52.126;5.596;2023-07-13T07:23:52;17.42;;;8.93;;
17564;SDS011;62994;52.126;5.596;2023-07-13T07:26:25;15.98;;;8.45;;
17564;SDS011;62994;52.126;5.596;2023-07-13T07:28:57;12.32;;;8.23;;
17564;SDS011;62994;52.126;5.596;2023-07-13T07:31:29;16.75;;;9.13;;
17564;SDS011;62994;52.126;5.596;2023-07-13T07:34:01;13.77;;;8.30;;
17564;SDS011;62994;52.126;5.596;2023-07-13T07:36:41;12.52;;;8.80;;
17564;SDS011;62994;52.126;5.596;2023-07-13T07:39:17;13.40;;;7.70;;
17564;SDS011;62994;52.126;5.596;2023-07-13T07:41:47;16.48;;;8.82;;
17564;SDS011;62994;52.126;5.596;2023-07-13T07:44:30;17.02;;;8.43;;
17564;SDS011;62994;52.126;5.596;2023-07-13T07:47:04;13.75;;;9.15;;
17564;SDS011;62994;52.126;5.596;2023-07-13T07:49:59;10.98;;;8.35;;
17564;SDS011;62994;52.126;5.596;2023-07-13T07:52:42;15.73;;;9.13;;
17564;SDS011;62994;52.126;5.596;2023-07-13T07:55:19;12.75;;;8.95;;
17564;SDS011;62994;52.126;5.596;2023-07-13T07:57:48;14.57;;;8.70;;
17564;SDS011;62994;52.126;5.596;2023-07-13T08:00:23;10.90;;;8.13;;
17564;SDS011;62994;52.126;5.596;2023-07-13T08:02:59;10.80;;;8.02;;
17564;SDS011;62994;52.126;5.596;2023-07-13T08:05:43;12.38;;;8.18;;
17564;SDS011;62994;52.126;5.596;2023-07-13T08:08:24;9.68;;;7.32;;
17564;SDS011;62994;52.126;5.596;2023-07-13T08:10:56;14.05;;;8.20;;
17564;SDS011;62994;52.126;5.596;2023-07-13T08:13:43;8.90;;;7.32;;
17564;SDS011;62994;52.126;5.596;2023-07-13T08:16:17;11.38;;;7.32;;
17564;SDS011;62994;52.126;5.596;2023-07-13T08:18:45;10.73;;;6.60;;
17564;SDS011;62994;52.126;5.596;2023-07-13T08:24:40;13.27;;;6.60;;
17564;SDS011;62994;52.126;5.596;2023-07-13T08:27:26;12.00;;;7.07;;
17564;SDS011;62994;52.126;5.596;2023-07-13T08:30:03;8.05;;;6.38;;
17564;SDS011;62994;52.126;5.596;2023-07-13T08:35:45;11.10;;;6.13;;
17564;SDS011;62994;52.126;5.596;2023-07-13T08:38:17;6.65;;;6.13;;
17564;SDS011;62994;52.126;5.596;2023-07-13T08:40:51;10.32;;;5.90;;
17564;SDS011;62994;52.126;5.596;2023-07-13T08:43:25;9.00;;;5.57;;
17564;SDS011;62994;52.126;5.596;2023-07-13T08:46:02;8.82;;;5.03;;
17564;SDS011;62994;52.126;5.596;2023-07-13T08:48:38;6.70;;;5.50;;
17564;SDS011;62994;52.126;5.596;2023-07-13T08:51:13;8.98;;;5.38;;
17564;SDS011;62994;52.126;5.596;2023-07-13T08:54:30;9.45;;;5.50;;
17564;SDS011;62994;52.126;5.596;2023-07-13T08:57:08;10.73;;;5.90;;
17564;SDS011;62994;52.126;5.596;2023-07-13T08:59:41;7.05;;;4.97;;
17564;SDS011;62994;52.126;5.596;2023-07-13T09:02:34;10.35;;;4.65;;
17564;SDS011;62994;52.126;5.596;2023-07-13T09:05:12;2.17;;;2.05;;
17564;SDS011;62994;52.126;5.596;2023-07-13T09:07:58;2.42;;;1.63;;
17564;SDS011;62994;52.126;5.596;2023-07-13T09:10:58;2.17;;;1.98;;
17564;SDS011;62994;52.126;5.596;2023-07-13T09:13:43;2.03;;;1.85;;
17564;SDS011;62994;52.126;5.596;2023-07-13T09:16:32;2.30;;;1.65;;
17564;SDS011;62994;52.126;5.596;2023-07-13T09:19:04;3.50;;;2.20;;
17564;SDS011;62994;52.126;5.596;2023-07-13T09:21:40;4.13;;;2.22;;
17564;SDS011;62994;52.126;5.596;2023-07-13T09:24:34;2.63;;;1.90;;
17564;SDS011;62994;52.126;5.596;2023-07-13T09:27:27;2.25;;;2.05;;
17564;SDS011;62994;52.126;5.596;2023-07-13T09:30:15;5.53;;;2.63;;
17564;SDS011;62994;52.126;5.596;2023-07-13T09:33:08;3.55;;;2.90;;
17564;SDS011;62994;52.126;5.596;2023-07-13T09:35:42;3.05;;;2.78;;
17564;SDS011;62994;52.126;5.596;2023-07-13T09:38:22;4.93;;;2.60;;
17564;SDS011;62994;52.126;5.596;2023-07-13T09:41:02;3.60;;;2.70;;
17564;SDS011;62994;52.126;5.596;2023-07-13T09:46:39;2.92;;;2.28;;
17564;SDS011;62994;52.126;5.596;2023-07-13T09:49:35;5.70;;;2.85;;
17564;SDS011;62994;52.126;5.596;2023-07-13T09:52:14;4.05;;;2.00;;
17564;SDS011;62994;52.126;5.596;2023-07-13T09:54:49;3.30;;;2.40;;
17564;SDS011;62994;52.126;5.596;2023-07-13T09:57:25;2.58;;;2.38;;
17564;SDS011;62994;52.126;5.596;2023-07-13T10:00:01;4.07;;;2.67;;
17564;SDS011;62994;52.126;5.596;2023-07-13T10:02:30;5.93;;;2.80;;
17564;SDS011;62994;52.126;5.596;2023-07-13T10:05:10;3.22;;;2.20;;
17564;SDS011;62994;52.126;5.596;2023-07-13T10:07:43;3.67;;;2.40;;
17564;SDS011;62994;52.126;5.596;2023-07-13T10:10:15;5.10;;;2.53;;
17564;SDS011;62994;52.126;5.596;2023-07-13T10:12:56;5.85;;;2.13;;
17564;SDS011;62994;52.126;5.596;2023-07-13T10:15:44;4.43;;;3.20;;
17564;SDS011;62994;52.126;5.596;2023-07-13T10:18:20;3.38;;;1.98;;
17564;SDS011;62994;52.126;5.596;2023-07-13T10:20:58;2.20;;;1.55;;
17564;SDS011;62994;52.126;5.596;2023-07-13T10:23:50;1.30;;;1.20;;
17564;SDS011;62994;52.126;5.596;2023-07-13T10:26:45;1.50;;;1.40;;
17564;SDS011;62994;52.126;5.596;2023-07-13T10:29:29;1.95;;;1.75;;
17564;SDS011;62994;52.126;5.596;2023-07-13T10:32:14;2.40;;;1.80;;
17564;SDS011;62994;52.126;5.596;2023-07-13T10:34:56;2.85;;;2.28;;
17564;SDS011;62994;52.126;5.596;2023-07-13T10:37:27;3.05;;;2.38;;
17564;SDS011;62994;52.126;5.596;2023-07-13T10:40:02;6.05;;;2.50;;
17564;SDS011;62994;52.126;5.596;2023-07-13T10:42:35;2.58;;;2.38;;
17564;SDS011;62994;52.126;5.596;2023-07-13T10:45:11;3.17;;;2.60;;
17564;SDS011;62994;52.126;5.596;2023-07-13T10:47:52;2.60;;;2.40;;
17564;SDS011;62994;52.126;5.596;2023-07-13T10:50:42;3.20;;;2.80;;
17564;SDS011;62994;52.126;5.596;2023-07-13T10:53:30;3.50;;;2.38;;
17564;SDS011;62994;52.126;5.596;2023-07-13T10:56:22;3.33;;;2.70;;
17564;SDS011;62994;52.126;5.596;2023-07-13T10:59:14;13.48;;;2.50;;
17564;SDS011;62994;52.126;5.596;2023-07-13T11:02:14;4.80;;;2.08;;
17564;SDS011;62994;52.126;5.596;2023-07-13T11:04:57;4.05;;;2.10;;
17564;SDS011;62994;52.126;5.596;2023-07-13T11:07:55;2.55;;;2.35;;
17564;SDS011;62994;52.126;5.596;2023-07-13T11:11:01;3.38;;;2.05;;
17564;SDS011;62994;52.126;5.596;2023-07-13T11:16:53;3.90;;;2.08;;
17564;SDS011;62994;52.126;5.596;2023-07-13T11:22:16;3.13;;;2.40;;
17564;SDS011;62994;52.126;5.596;2023-07-13T11:25:00;2.40;;;2.03;;
17564;SDS011;62994;52.126;5.596;2023-07-13T11:27:34;2.10;;;2.00;;
17564;SDS011;62994;52.126;5.596;2023-07-13T11:30:07;3.08;;;2.00;;
17564;SDS011;62994;52.126;5.596;2023-07-13T11:33:04;1.80;;;1.70;;
17564;SDS011;62994;52.126;5.596;2023-07-13T11:41:55;2.10;;;1.90;;
17564;SDS011;62994;52.126;5.596;2023-07-13T11:44:32;2.85;;;2.10;;
17564;SDS011;62994;52.126;5.596;2023-07-13T11:47:11;2.22;;;2.08;;
17564;SDS011;62994;52.126;5.596;2023-07-13T11:49:54;2.53;;;2.00;;
17564;SDS011;62994;52.126;5.596;2023-07-13T11:52:38;3.53;;;2.38;;
17564;SDS011;62994;52.126;5.596;2023-07-13T11:55:33;5.30;;;2.45;;
17564;SDS011;62994;52.126;5.596;2023-07-13T11:58:21;5.95;;;3.22;;
17564;SDS011;62994;52.126;5.596;2023-07-13T12:01:04;5.18;;;2.80;;
17564;SDS011;62994;52.126;5.596;2023-07-13T12:03:44;5.38;;;2.90;;
17564;SDS011;62994;52.126;5.596;2023-07-13T12:06:21;2.50;;;2.30;;
17564;SDS011;62994;52.126;5.596;2023-07-13T12:14:54;2.30;;;2.20;;
17564;SDS011;62994;52.126;5.596;2023-07-13T12:17:42;3.15;;;2.55;;
17564;SDS011;62994;52.126;5.596;2023-07-13T12:21:30;3.13;;;2.90;;
17564;SDS011;62994;52.126;5.596;2023-07-13T12:24:02;6.18;;;3.33;;
17564;SDS011;62994;52.126;5.596;2023-07-13T12:26:50;3.03;;;2.70;;
17564;SDS011;62994;52.126;5.596;2023-07-13T12:29:28;4.88;;;3.50;;
17564;SDS011;62994;52.126;5.596;2023-07-13T12:31:58;4.30;;;3.47;;
17564;SDS011;62994;52.126;5.596;2023-07-13T12:37:21;7.82;;;4.05;;
17564;SDS011;62994;52.126;5.596;2023-07-13T12:42:48;4.85;;;3.13;;
17564;SDS011;62994;52.126;5.596;2023-07-13T12:45:26;3.88;;;3.10;;
17564;SDS011;62994;52.126;5.596;2023-07-13T12:48:14;5.20;;;2.80;;
17564;SDS011;62994;52.126;5.596;2023-07-13T12:50:48;4.90;;;2.85;;
17564;SDS011;62994;52.126;5.596;2023-07-13T12:53:28;2.58;;;2.42;;
17564;SDS011;62994;52.126;5.596;2023-07-13T12:56:08;5.25;;;2.75;;
17564;SDS011;62994;52.126;5.596;2023-07-13T12:59:04;3.38;;;2.80;;
17564;SDS011;62994;52.126;5.596;2023-07-13T13:01:37;2.72;;;2.40;;
17564;SDS011;62994;52.126;5.596;2023-07-13T13:04:23;6.00;;;3.03;;
17564;SDS011;62994;52.126;5.596;2023-07-13T13:07:17;3.70;;;2.78;;
17564;SDS011;62994;52.126;5.596;2023-07-13T13:10:20;3.28;;;2.80;;
17564;SDS011;62994;52.126;5.596;2023-07-13T13:12:49;3.78;;;2.13;;
17564;SDS011;62994;52.126;5.596;2023-07-13T13:15:21;2.88;;;2.60;;
17564;SDS011;62994;52.126;5.596;2023-07-13T13:21:05;2.22;;;2.08;;
17564;SDS011;62994;52.126;5.596;2023-07-13T13:23:39;2.95;;;2.35;;
17564;SDS011;62994;52.126;5.596;2023-07-13T13:26:26;3.05;;;2.42;;
17564;SDS011;62994;52.126;5.596;2023-07-13T13:29:08;2.20;;;2.00;;
17564;SDS011;62994;52.126;5.596;2023-07-13T13:31:56;2.13;;;2.00;;
17564;SDS011;62994;52.126;5.596;2023-07-13T13:34:30;5.28;;;2.25;;
17564;SDS011;62994;52.126;5.596;2023-07-13T13:39:58;2.53;;;2.33;;
17564;SDS011;62994;52.126;5.596;2023-07-13T13:42:50;3.65;;;2.28;;
17564;SDS011;62994;52.126;5.596;2023-07-13T13:45:39;2.90;;;2.00;;
17564;SDS011;62994;52.126;5.596;2023-07-13T13:48:15;2.85;;;2.30;;
17564;SDS011;62994;52.126;5.596;2023-07-13T13:50:57;2.90;;;2.10;;
17564;SDS011;62994;52.126;5.596;2023-07-13T13:53:39;2.20;;;2.00;;
17564;SDS011;62994;52.126;5.596;2023-07-13T13:56:50;3.03;;;2.10;;
17564;SDS011;62994;52.126;5.596;2023-07-13T13:59:39;4.15;;;2.15;;
17564;SDS011;62994;52.126;5.596;2023-07-13T14:02:28;2.58;;;2.38;;
17564;SDS011;62994;52.126;5.596;2023-07-13T14:05:21;2.25;;;1.92;;
17564;SDS011;62994;52.126;5.596;2023-07-13T14:07:55;2.03;;;1.92;;
17564;SDS011;62994;52.126;5.596;2023-07-13T14:13:19;2.00;;;1.90;;
17564;SDS011;62994;52.126;5.596;2023-07-13T14:16:27;3.00;;;1.88;;
17564;SDS011;62994;52.126;5.596;2023-07-13T14:19:02;2.20;;;2.10;;
17564;SDS011;62994;52.126;5.596;2023-07-13T14:23:10;2.78;;;2.58;;
17564;SDS011;62994;52.126;5.596;2023-07-13T14:24:59;3.95;;;2.33;;
17564;SDS011;62994;52.126;5.596;2023-07-13T14:27:41;3.03;;;2.33;;
17564;SDS011;62994;52.126;5.596;2023-07-13T14:30:35;2.30;;;2.10;;
17564;SDS011;62994;52.126;5.596;2023-07-13T14:33:36;2.58;;;2.13;;
17564;SDS011;62994;52.126;5.596;2023-07-13T14:36:36;2.42;;;1.98;;
17564;SDS011;62994;52.126;5.596;2023-07-13T14:39:22;2.25;;;2.10;;
17564;SDS011;62994;52.126;5.596;2023-07-13T14:42:12;2.85;;;2.30;;
17564;SDS011;62994;52.126;5.596;2023-07-13T14:44:51;2.63;;;2.42;;
17564;SDS011;62994;52.126;5.596;2023-07-13T14:47:23;4.03;;;3.42;;
17564;SDS011;62994;52.126;5.596;2023-07-13T14:50:07;4.65;;;2.38;;
17564;SDS011;62994;52.126;5.596;2023-07-13T14:52:43;2.85;;;2.55;;
17564;SDS011;62994;52.126;5.596;2023-07-13T14:55:16;4.82;;;2.50;;
17564;SDS011;62994;52.126;5.596;2023-07-13T14:57:55;2.60;;;2.40;;
17564;SDS011;62994;52.126;5.596;2023-07-13T15:00:30;2.33;;;2.13;;
17564;SDS011;62994;52.126;5.596;2023-07-13T15:03:14;4.00;;;2.15;;
17564;SDS011;62994;52.126;5.596;2023-07-13T15:05:50;3.17;;;2.35;;
17564;SDS011;62994;52.126;5.596;2023-07-13T15:08:29;3.50;;;2.08;;
17564;SDS011;62994;52.126;5.596;2023-07-13T15:11:21;3.63;;;2.10;;
17564;SDS011;62994;52.126;5.596;2023-07-13T15:17:16;1.98;;;1.88;;
17564;SDS011;62994;52.126;5.596;2023-07-13T15:20:45;2.88;;;2.15;;
17564;SDS011;62994;52.126;5.596;2023-07-13T15:23:15;3.20;;;2.08;;
17564;SDS011;62994;52.126;5.596;2023-07-13T15:26:07;2.42;;;1.90;;
17564;SDS011;62994;52.126;5.596;2023-07-13T15:28:52;2.13;;;1.92;;
17564;SDS011;62994;52.126;5.596;2023-07-13T15:31:32;5.78;;;2.13;;
17564;SDS011;62994;52.126;5.596;2023-07-13T15:34:40;5.20;;;2.20;;
17564;SDS011;62994;52.126;5.596;2023-07-13T15:37:17;2.47;;;2.30;;
17564;SDS011;62994;52.126;5.596;2023-07-13T15:40:02;2.55;;;1.95;;
17564;SDS011;62994;52.126;5.596;2023-07-13T15:42:58;2.63;;;2.17;;
17564;SDS011;62994;52.126;5.596;2023-07-13T15:45:39;2.25;;;2.10;;
17564;SDS011;62994;52.126;5.596;2023-07-13T15:48:51;2.30;;;2.20;;
17564;SDS011;62994;52.126;5.596;2023-07-13T16:04:36;2.65;;;2.15;;
17564;SDS011;62994;52.126;5.596;2023-07-13T16:38:02;2.20;;;2.00;;
17564;SDS011;62994;52.126;5.596;2023-07-13T16:40:35;2.78;;;2.40;;
17564;SDS011;62994;52.126;5.596;2023-07-13T16:43:08;3.90;;;1.63;;
17564;SDS011;62994;52.126;5.596;2023-07-13T16:45:45;2.33;;;1.95;;
17564;SDS011;62994;52.126;5.596;2023-07-13T16:48:30;3.28;;;1.60;;
17564;SDS011;62994;52.126;5.596;2023-07-13T16:51:00;3.65;;;1.60;;
17564;SDS011;62994;52.126;5.596;2023-07-13T16:53:36;1.70;;;1.70;;
17564;SDS011;62994;52.126;5.596;2023-07-13T16:56:10;2.90;;;1.77;;
17564;SDS011;62994;52.126;5.596;2023-07-13T16:58:48;2.53;;;1.80;;
17564;SDS011;62994;52.126;5.596;2023-07-13T17:01:35;1.85;;;1.70;;
17564;SDS011;62994;52.126;5.596;2023-07-13T17:04:05;3.28;;;1.80;;
17564;SDS011;62994;52.126;5.596;2023-07-13T17:06:57;1.80;;;1.70;;
17564;SDS011;62994;52.126;5.596;2023-07-13T17:09:32;2.15;;;2.05;;
17564;SDS011;62994;52.126;5.596;2023-07-13T17:12:07;3.75;;;1.42;;
17564;SDS011;62994;52.126;5.596;2023-07-13T17:14:43;1.63;;;1.52;;
17564;SDS011;62994;52.126;5.596;2023-07-13T17:17:18;1.50;;;1.40;;
17564;SDS011;62994;52.126;5.596;2023-07-13T17:19:56;2.20;;;1.98;;
17564;SDS011;62994;52.126;5.596;2023-07-13T17:22:30;1.85;;;1.75;;